Nelsonville, Wisconsin
Current Conditions -  °F | °C
As of 8:35 PM on Wednesday 22 Oct 2014 (Local Time) from KSTE Reporting Station
Clear Clear  
Wind Chill: 40°   Ceiling: Unl
Heat Index: 40°   Visibility: 10mi
Dew Point: 33°   Wind: 3mph
Humidity: 74%   Direction: 120°ESE
Pressure: 30.21"   Gusts: NA
Location:  44.49°N, 89.31°W
Report Text: KSTE 230135Z AUTO 12003KT 10SM CLR 05/01 A3021 RMK AO2 T00470005
Loading
Personal Weather Stations






























Interactive Weather Map
Tropical Storm Tracking
New forecast layout! Learn more

10-Day Weather Forecast

Advertisements
Track Severe Weather on mobile